Time;durP1;ratioP1;P1;durP2;ratioP2;P2;SDS_P1;SDS_P2;PMS_P1;PMS_P2;Temp;Humidity;BMP_temperature;BMP_pressure;BME280_temperature;BME280_humidity;BME280_pressure;Samples;Min_cycle;Max_cycle;Signal;HPM_P1;HPM_P2
2021/07/29 00:03:03;;;;;;;;;;;;;;;;;;10240575;28;20025;-66
2021/07/29 00:08:00;;;;;;;;;;;;;;;;;;10236799;28;20376;-66
2021/07/29 00:12:58;;;;;;;;;;;;;;;;;;10241293;28;19918;-66
2021/07/29 00:23:12;;;;;;;;;;;;;;;;;;10206321;28;20040;-65
2021/07/29 00:28:10;;;;;;;;;;;;;;;;;;10229340;28;20455;-65
2021/07/29 00:33:08;;;;;;;;;;;;;;;;;;10241221;28;19917;-65
2021/07/29 00:38:05;;;;;;;;;;;;;;;;;;10241485;28;20012;-65
2021/07/29 00:43:02;;;;;;;;;;;;;;;;;;10246846;28;20376;-66
2021/07/29 00:48:00;;;;;;;;;;;;;;;;;;10242961;28;19921;-66
2021/07/29 00:52:57;;;;;;;;;;;;;;;;;;10241070;28;20296;-66
2021/07/29 00:57:54;;;;;;;;;;;;;;;;;;10229309;28;19918;-66
2021/07/29 01:02:51;;;;;;;;;;;;;;;;;;10243213;28;19946;-66
2021/07/29 01:07:49;;;;;;;;;;;;;;;;;;10244442;28;19925;-66
2021/07/29 01:12:46;;;;;;;;;;;;;;;;;;10244032;28;20016;-65
2021/07/29 01:17:43;;;;;;;;;;;;;;;;;;10255460;28;20021;-66
2021/07/29 01:22:41;;;;;;;;;;;;;;;;;;10242231;28;19918;-64
2021/07/29 01:27:38;;;;;;;;;;;;;;;;;;10238764;28;19929;-64
2021/07/29 01:32:36;;;;;;;;;;;;;;;;;;10240078;28;19928;-65
2021/07/29 01:37:34;;;;;;;;;;;;;;;;;;10229909;28;19917;-64
2021/07/29 01:42:31;;;;;;;;;;;;;;;;;;10233252;28;19928;-65
2021/07/29 01:47:28;;;;;;;;;;;;;;;;;;10244958;28;20464;-65
2021/07/29 01:52:26;;;;;;;;;;;;;;;;;;10231403;28;19922;-64
2021/07/29 01:57:23;;;;;;;;;;;;;;;;;;10231229;28;20119;-64
2021/07/29 02:02:21;;;;;;;;;;;;;;;;;;10234377;28;19997;-64
2021/07/29 02:07:20;;;;;;;;;;;;;;;;;;10234903;28;20449;-64
2021/07/29 02:12:18;;;;;;;;;;;;;;;;;;10234529;28;20280;-64
2021/07/29 02:17:15;;;;;;;;;;;;;;;;;;10247102;28;20713;-64
2021/07/29 02:22:12;;;;;;;;;;;;;;;;;;10241894;28;19921;-64
2021/07/29 02:27:10;;;;;;;;;;;;;;;;;;10236356;28;19944;-64
2021/07/29 02:32:07;;;;;;;;;;;;;;;;;;10242372;28;19921;-64
2021/07/29 02:37:04;;;;;;;;;;;;;;;;;;10242932;28;19917;-65
2021/07/29 02:42:01;;;;;;;;;;;;;;;;;;10282146;22;19936;-69
2021/07/29 02:46:59;;;;;;;;;;;;;;;;;;10300543;28;19926;-64
2021/07/29 02:51:56;;;;;;;;;;;;;;;;;;10278470;28;20048;-69
2021/07/29 02:56:53;;;;;;;;;;;;;;;;;;10274414;28;19925;-68
2021/07/29 03:01:51;;;;;;;;;;;;;;;;;;10275923;28;19971;-68
2021/07/29 03:06:48;;;;;;;;;;;;;;;;;;10286261;28;19932;-67
2021/07/29 03:11:45;;;;;;;;;;;;;;;;;;10287775;28;19921;-67
2021/07/29 03:16:43;;;;;;;;;;;;;;;;;;10267066;28;19917;-67
2021/07/29 03:21:40;;;;;;;;;;;;;;;;;;10281620;28;19917;-67
2021/07/29 03:26:37;;;;;;;;;;;;;;;;;;10283841;28;19917;-67
2021/07/29 03:31:34;;;;;;;;;;;;;;;;;;10267680;28;19925;-66
2021/07/29 03:36:32;;;;;;;;;;;;;;;;;;10289553;28;20012;-65
2021/07/29 03:41:29;;;;;;;;;;;;;;;;;;10287956;28;19937;-67
2021/07/29 03:46:26;;;;;;;;;;;;;;;;;;10281137;28;19918;-67
2021/07/29 03:51:24;;;;;;;;;;;;;;;;;;10291508;28;20051;-69
2021/07/29 03:56:21;;;;;;;;;;;;;;;;;;10285012;28;19925;-67
2021/07/29 04:01:19;;;;;;;;;;;;;;;;;;10282367;28;19921;-70
2021/07/29 04:06:17;;;;;;;;;;;;;;;;;;10295557;28;21766;-68
2021/07/29 04:11:14;;;;;;;;;;;;;;;;;;10278436;28;20406;-65
2021/07/29 04:16:12;;;;;;;;;;;;;;;;;;10280621;28;19917;-67
2021/07/29 04:21:09;;;;;;;;;;;;;;;;;;10282636;28;19917;-68
2021/07/29 04:26:06;;;;;;;;;;;;;;;;;;10275365;28;19921;-66
2021/07/29 04:31:03;;;;;;;;;;;;;;;;;;10271569;28;19921;-67
2021/07/29 04:36:01;;;;;;;;;;;;;;;;;;10270787;28;19990;-67
2021/07/29 04:40:58;;;;;;;;;;;;;;;;;;10278583;28;20310;-67
2021/07/29 04:45:55;;;;;;;;;;;;;;;;;;10285380;28;19917;-66
2021/07/29 04:50:52;;;;;;;;;;;;;;;;;;10282477;28;20079;-68
2021/07/29 04:55:50;;;;;;;;;;;;;;;;;;10282088;28;19930;-68
2021/07/29 05:00:47;;;;;;;;;;;;;;;;;;10282942;28;19928;-69
2021/07/29 05:05:44;;;;;;;;;;;;;;;;;;10280996;28;20375;-67
2021/07/29 05:10:42;;;;;;;;;;;;;;;;;;10280671;28;19921;-67
2021/07/29 05:15:39;;;;;;;;;;;;;;;;;;10273784;28;19921;-67
2021/07/29 05:20:36;;;;;;;;;;;;;;;;;;10272248;28;19921;-67
2021/07/29 05:25:33;;;;;;;;;;;;;;;;;;10288130;28;19931;-67
2021/07/29 05:30:31;;;;;;;;;;;;;;;;;;10269693;28;19925;-68
2021/07/29 05:35:28;;;;;;;;;;;;;;;;;;10272946;28;19940;-67
2021/07/29 05:40:25;;;;;;;;;;;;;;;;;;10278690;28;19925;-68
2021/07/29 05:45:23;;;;;;;;;;;;;;;;;;10281114;28;19929;-67
2021/07/29 05:50:21;;;;;;;;;;;;;;;;;;10269940;28;20006;-66
2021/07/29 05:55:18;;;;;;;;;;;;;;;;;;10277139;28;20733;-67
2021/07/29 06:00:16;;;;;;;;;;;;;;;;;;10284886;28;20033;-67
2021/07/29 06:05:13;;;;;;;;;;;;;;;;;;10303621;28;19921;-69
2021/07/29 06:10:11;;;;;;;;;;;;;;;;;;10281992;28;20378;-68
2021/07/29 06:15:08;;;;;;;;;;;;;;;;;;10288226;28;20311;-67
2021/07/29 06:20:07;;;;;;;;;;;;;;;;;;10281023;28;19921;-68
2021/07/29 06:25:07;;;;;;;;;;;;;;;;;;10284542;28;19929;-67
2021/07/29 06:30:04;;;;;;;;;;;;;;;;;;10285554;28;19925;-67
2021/07/29 06:35:02;;;;;;;;;;;;;;;;;;10286910;28;19925;-67
2021/07/29 06:39:59;;;;;;;;;;;;;;;;;;10294709;28;19924;-66
2021/07/29 06:44:56;;;;;;;;;;;;;;;;;;10285673;28;20002;-68
2021/07/29 06:49:54;;;;;;;;;;;;;;;;;;10295280;28;19928;-68
2021/07/29 06:54:51;;;;;;;;;;;;;;;;;;10293215;28;19917;-67
2021/07/29 06:59:48;;;;;;;;;;;;;;;;;;10300474;28;20361;-68
2021/07/29 07:04:45;;;;;;;;;;;;;;;;;;10277612;28;19924;-66
2021/07/29 07:09:43;;;;;;;;;;;;;;;;;;10300996;28;19970;-67
2021/07/29 07:14:40;;;;;;;;;;;;;;;;;;10286576;28;19923;-66
2021/07/29 07:19:37;;;;;;;;;;;;;;;;;;10280361;28;19921;-67
2021/07/29 07:24:35;;;;;;;;;;;;;;;;;;10287009;28;19925;-66
2021/07/29 07:29:32;;;;;;;;;;;;;;;;;;10291602;28;19926;-67
2021/07/29 07:34:29;;;;;;;;;;;;;;;;;;10297695;28;19913;-67
2021/07/29 07:39:27;;;;;;;;;;;;;;;;;;10291705;28;20451;-66
2021/07/29 07:44:24;;;;;;;;;;;;;;;;;;10294101;28;20340;-67
2021/07/29 07:49:21;;;;;;;;;;;;;;;;;;10293131;28;19999;-66
2021/07/29 07:54:19;;;;;;;;;;;;;;;;;;10291152;28;20391;-67
2021/07/29 07:59:16;;;;;;;;;;;;;;;;;;10296694;28;19917;-66
2021/07/29 08:04:13;;;;;;;;;;;;;;;;;;10286611;28;20267;-68
2021/07/29 08:09:10;;;;;;;;;;;;;;;;;;10295287;28;20325;-69
2021/07/29 08:14:08;;;;;;;;;;;;;;;;;;10288298;28;19921;-67
2021/07/29 08:19:06;;;;;;;;;;;;;;;;;;10288509;28;19921;-70
2021/07/29 08:24:03;;;;;;;;;;;;;;;;;;10277766;28;19924;-67
2021/07/29 08:29:00;;;;;;;;;;;;;;;;;;10286905;28;19977;-67
2021/07/29 08:33:58;;;;;;;;;;;;;;;;;;10293894;28;19925;-67
2021/07/29 08:38:55;;;;;;;;;;;;;;;;;;10289581;28;19917;-68
2021/07/29 08:43:52;;;;;;;;;;;;;;;;;;10281301;28;19929;-68
2021/07/29 08:48:50;;;;;;;;;;;;;;;;;;10286290;28;20405;-68
2021/07/29 08:53:47;;;;;;;;;;;;;;;;;;10289470;28;19921;-67
2021/07/29 08:58:45;;;;;;;;;;;;;;;;;;10282868;28;19921;-69
2021/07/29 09:03:52;;;;;;;;;;;;;;;;;;10261400;28;19921;-68
2021/07/29 09:08:49;;;;;;;;;;;;;;;;;;10279563;28;19921;-71
2021/07/29 09:13:47;;;;;;;;;;;;;;;;;;10279813;28;19917;-67
2021/07/29 09:18:44;;;;;;;;;;;;;;;;;;10279285;28;20274;-68
2021/07/29 09:23:42;;;;;;;;;;;;;;;;;;10286682;28;19970;-70
2021/07/29 09:28:39;;;;;;;;;;;;;;;;;;10290275;28;19921;-69
2021/07/29 09:33:36;;;;;;;;;;;;;;;;;;10294758;28;19982;-70
2021/07/29 09:38:34;;;;;;;;;;;;;;;;;;10284656;28;19917;-68
2021/07/29 09:43:32;;;;;;;;;;;;;;;;;;10302442;28;20388;-71
2021/07/29 09:48:30;;;;;;;;;;;;;;;;;;10293024;28;19921;-69
2021/07/29 09:53:27;;;;;;;;;;;;;;;;;;10290867;28;19921;-70
2021/07/29 09:58:24;;;;;;;;;;;;;;;;;;10291398;28;19924;-69
2021/07/29 10:03:21;;;;;;;;;;;;;;;;;;10286189;28;19940;-70
2021/07/29 10:08:22;;;;;;;;;;;;;;;;;;10278256;28;19917;-71
2021/07/29 10:13:19;;;;;;;;;;;;;;;;;;10275907;28;20296;-68
2021/07/29 10:18:16;;;;;;;;;;;;;;;;;;10294310;28;19923;-71
2021/07/29 10:23:13;;;;;;;;;;;;;;;;;;10292245;28;20017;-69
2021/07/29 10:28:11;;;;;;;;;;;;;;;;;;10283967;28;20493;-71
2021/07/29 10:33:08;;;;;;;;;;;;;;;;;;10278361;28;19976;-72
2021/07/29 10:38:06;;;;;;;;;;;;;;;;;;10254793;28;19925;-70
2021/07/29 10:43:03;;;;;;;;;;;;;;;;;;10274191;28;19947;-71
2021/07/29 10:48:02;;;;;;;;;;;;;;;;;;10278484;28;19964;-69
2021/07/29 10:53:00;;;;;;;;;;;;;;;;;;10289873;28;19971;-67
2021/07/29 10:57:57;;;;;;;;;;;;;;;;;;10297310;28;19928;-67
2021/07/29 11:02:56;;;;;;;;;;;;;;;;;;10284491;28;19921;-70
2021/07/29 11:07:53;;;;;;;;;;;;;;;;;;10286195;28;19979;-68
2021/07/29 11:12:51;;;;;;;;;;;;;;;;;;10282950;28;19953;-68
2021/07/29 11:17:48;;;;;;;;;;;;;;;;;;10281101;28;20413;-69
2021/07/29 11:22:45;;;;;;;;;;;;;;;;;;10286198;28;20346;-67
2021/07/29 11:27:43;;;;;;;;;;;;;;;;;;10289239;28;19990;-68
2021/07/29 11:32:40;;;;;;;;;;;;;;;;;;10302482;28;19925;-69
2021/07/29 11:37:37;;;;;;;;;;;;;;;;;;10286798;28;20267;-67
2021/07/29 11:42:35;;;;;;;;;;;;;;;;;;10291324;28;19944;-68
2021/07/29 11:47:36;;;;;;;;;;;;;;;;;;10283637;28;19989;-69
2021/07/29 11:52:34;;;;;;;;;;;;;;;;;;10291303;28;20413;-68
2021/07/29 11:57:31;;;;;;;;;;;;;;;;;;10279835;28;19940;-67
2021/07/29 12:02:28;;;;;;;;;;;;;;;;;;10278946;28;19917;-68
2021/07/29 12:07:26;;;;;;;;;;;;;;;;;;10283925;28;19939;-67
2021/07/29 12:12:23;;;;;;;;;;;;;;;;;;10283860;28;19924;-68
2021/07/29 12:17:20;;;;;;;;;;;;;;;;;;10285570;28;19918;-68
2021/07/29 12:22:17;;;;;;;;;;;;;;;;;;10289149;28;19917;-67
2021/07/29 12:27:18;;;;;;;;;;;;;;;;;;10291063;28;19924;-68
2021/07/29 12:32:16;;;;;;;;;;;;;;;;;;10286312;28;19921;-68
2021/07/29 12:37:13;;;;;;;;;;;;;;;;;;10271574;28;19921;-67
2021/07/29 12:42:10;;;;;;;;;;;;;;;;;;10276275;28;20466;-68
2021/07/29 12:47:07;;;;;;;;;;;;;;;;;;10304027;28;20420;-67
2021/07/29 12:52:05;;;;;;;;;;;;;;;;;;10265855;28;19921;-67
2021/07/29 12:57:02;;;;;;;;;;;;;;;;;;10279101;28;20321;-66
2021/07/29 13:01:59;;;;;;;;;;;;;;;;;;10285943;28;19962;-69
2021/07/29 13:06:59;;;;;;;;;;;;;;;;;;10271726;28;19921;-67
2021/07/29 13:11:56;;;;;;;;;;;;;;;;;;10275679;28;19925;-70
2021/07/29 13:16:54;;;;;;;;;;;;;;;;;;10280848;28;19929;-66
2021/07/29 13:21:51;;;;;;;;;;;;;;;;;;10274982;28;19918;-69
2021/07/29 13:26:48;;;;;;;;;;;;;;;;;;10291314;28;19921;-67
2021/07/29 13:31:45;;;;;;;;;;;;;;;;;;10282579;28;19921;-67
2021/07/29 13:36:43;;;;;;;;;;;;;;;;;;10281165;28;20291;-67
2021/07/29 13:41:41;;;;;;;;;;;;;;;;;;10292326;28;19922;-67
2021/07/29 13:46:38;;;;;;;;;;;;;;;;;;10291423;28;19917;-68
2021/07/29 13:51:35;;;;;;;;;;;;;;;;;;10290640;28;19921;-67
2021/07/29 13:56:32;;;;;;;;;;;;;;;;;;10280263;28;20378;-67
2021/07/29 14:01:30;;;;;;;;;;;;;;;;;;10285751;28;19917;-67
2021/07/29 14:06:27;;;;;;;;;;;;;;;;;;10283598;28;19924;-66
2021/07/29 14:11:24;;;;;;;;;;;;;;;;;;10290485;28;20017;-67
2021/07/29 14:16:21;;;;;;;;;;;;;;;;;;10286271;28;19921;-67
2021/07/29 14:21:33;;;;;;;;;;;;;;;;;;10280230;28;19917;-67
2021/07/29 14:26:31;;;;;;;;;;;;;;;;;;10296641;28;19932;-68
2021/07/29 14:31:28;;;;;;;;;;;;;;;;;;10273322;28;19952;-69
2021/07/29 14:36:25;;;;;;;;;;;;;;;;;;10287200;28;20012;-66
2021/07/29 14:41:22;;;;;;;;;;;;;;;;;;10286615;28;19929;-70
2021/07/29 14:51:38;;;;;;;;;;;;;;;;;;10267704;28;19979;-67
2021/07/29 14:56:42;;;;;;;;;;;;;;;;;;10300373;28;19924;-67
2021/07/29 16:10:07;;;;;;;;;;;;;;;;;;10280526;28;19921;-68
2021/07/29 16:15:04;;;;;;;;;;;;;;;;;;10278476;28;19935;-67
2021/07/29 16:20:01;;;;;;;;;;;;;;;;;;10279357;28;19982;-67
2021/07/29 16:24:58;;;;;;;;;;;;;;;;;;10287025;28;19917;-67
2021/07/29 16:29:55;;;;;;;;;;;;;;;;;;10274983;28;20335;-67
2021/07/29 16:34:52;;;;;;;;;;;;;;;;;;10278299;28;19917;-67
2021/07/29 16:39:50;;;;;;;;;;;;;;;;;;10272279;28;20434;-71
2021/07/29 16:44:47;;;;;;;;;;;;;;;;;;10284679;28;19960;-68
2021/07/29 16:49:45;;;;;;;;;;;;;;;;;;10285232;28;20444;-70
2021/07/29 16:54:43;;;;;;;;;;;;;;;;;;10273995;28;19956;-67
2021/07/29 16:59:40;;;;;;;;;;;;;;;;;;10277464;28;19940;-70
2021/07/29 17:04:37;;;;;;;;;;;;;;;;;;10282649;28;20423;-67
2021/07/29 17:09:34;;;;;;;;;;;;;;;;;;10273851;28;20064;-69
2021/07/29 17:14:32;;;;;;;;;;;;;;;;;;10283310;28;20027;-69
2021/07/29 17:19:35;;;;;;;;;;;;;;;;;;10280712;28;19925;-67
2021/07/29 17:24:32;;;;;;;;;;;;;;;;;;10298023;28;20048;-70
2021/07/29 17:29:32;;;;;;;;;;;;;;;;;;10280031;28;20465;-69
2021/07/29 17:34:29;;;;;;;;;;;;;;;;;;10271866;28;19928;-68
2021/07/29 17:39:27;;;;;;;;;;;;;;;;;;10295068;28;19927;-69
2021/07/29 17:44:24;;;;;;;;;;;;;;;;;;10268078;28;20207;-68
2021/07/29 17:49:21;;;;;;;;;;;;;;;;;;10296774;28;19928;-67
2021/07/29 17:54:19;;;;;;;;;;;;;;;;;;10304454;28;20351;-66
2021/07/29 17:59:16;;;;;;;;;;;;;;;;;;10291321;28;19918;-72
2021/07/29 18:04:16;;;;;;;;;;;;;;;;;;10306298;28;19957;-67
2021/07/29 18:09:15;;;;;;;;;;;;;;;;;;10290281;28;19932;-67
2021/07/29 18:14:12;;;;;;;;;;;;;;;;;;10290586;28;19921;-69
2021/07/29 18:19:09;;;;;;;;;;;;;;;;;;10289139;28;20332;-67
2021/07/29 18:24:07;;;;;;;;;;;;;;;;;;10293447;28;19925;-69
2021/07/29 18:29:04;;;;;;;;;;;;;;;;;;10306976;28;19969;-67
2021/07/29 18:34:01;;;;;;;;;;;;;;;;;;10285305;28;19925;-69
2021/07/29 18:38:59;;;;;;;;;;;;;;;;;;10294303;28;19921;-67
2021/07/29 18:43:56;;;;;;;;;;;;;;;;;;10285313;28;19921;-69
2021/07/29 18:48:53;;;;;;;;;;;;;;;;;;10280370;28;19955;-65
2021/07/29 18:53:52;;;;;;;;;;;;;;;;;;10309085;28;19921;-67
2021/07/29 18:58:49;;;;;;;;;;;;;;;;;;10282780;28;19921;-69
2021/07/29 19:03:47;;;;;;;;;;;;;;;;;;10282732;28;19917;-68
2021/07/29 19:08:44;;;;;;;;;;;;;;;;;;10276458;28;20011;-68
2021/07/29 19:13:42;;;;;;;;;;;;;;;;;;10264062;28;19925;-69
2021/07/29 19:18:39;;;;;;;;;;;;;;;;;;10276568;28;19925;-67
2021/07/29 19:23:36;;;;;;;;;;;;;;;;;;10267227;28;19987;-67
2021/07/29 19:28:34;;;;;;;;;;;;;;;;;;10266467;28;20272;-66
2021/07/29 19:33:31;;;;;;;;;;;;;;;;;;10301824;28;19921;-67
2021/07/29 19:38:28;;;;;;;;;;;;;;;;;;10282676;28;19928;-67
2021/07/29 19:43:25;;;;;;;;;;;;;;;;;;10291582;28;20017;-68
2021/07/29 19:48:23;;;;;;;;;;;;;;;;;;10271901;28;19918;-70
2021/07/29 19:53:21;;;;;;;;;;;;;;;;;;10288364;28;19984;-67
2021/07/29 19:58:18;;;;;;;;;;;;;;;;;;10285403;28;20059;-68
2021/07/29 20:03:16;;;;;;;;;;;;;;;;;;10278851;28;19921;-67
2021/07/29 20:08:13;;;;;;;;;;;;;;;;;;10264286;28;20449;-68
2021/07/29 20:13:10;;;;;;;;;;;;;;;;;;10266983;28;19935;-67
2021/07/29 20:18:07;;;;;;;;;;;;;;;;;;10289000;28;19939;-66
2021/07/29 20:23:05;;;;;;;;;;;;;;;;;;10278434;28;20012;-71
2021/07/29 20:28:03;;;;;;;;;;;;;;;;;;10258614;28;19917;-68
2021/07/29 20:33:02;;;;;;;;;;;;;;;;;;10270154;28;20888;-67
2021/07/29 20:37:59;;;;;;;;;;;;;;;;;;10280779;28;19927;-67
2021/07/29 20:42:57;;;;;;;;;;;;;;;;;;10274599;28;19947;-70
2021/07/29 20:47:54;;;;;;;;;;;;;;;;;;10240988;28;20464;-67
2021/07/29 20:52:51;;;;;;;;;;;;;;;;;;10286213;28;19940;-67
2021/07/29 20:57:49;;;;;;;;;;;;;;;;;;10272634;28;19974;-68
2021/07/29 21:02:47;;;;;;;;;;;;;;;;;;10255401;28;19924;-69
2021/07/29 21:07:44;;;;;;;;;;;;;;;;;;10268857;28;19992;-67
2021/07/29 21:12:41;;;;;;;;;;;;;;;;;;10278172;28;20023;-67
2021/07/29 21:17:39;;;;;;;;;;;;;;;;;;10264481;28;19926;-68
2021/07/29 21:22:36;;;;;;;;;;;;;;;;;;10273856;28;19972;-67
2021/07/29 21:27:33;;;;;;;;;;;;;;;;;;10273773;28;20324;-67
2021/07/29 21:32:31;;;;;;;;;;;;;;;;;;10306263;28;19975;-67
2021/07/29 21:37:28;;;;;;;;;;;;;;;;;;10294185;28;20594;-67
2021/07/29 21:42:25;;;;;;;;;;;;;;;;;;10260453;28;19983;-68
2021/07/29 21:47:22;;;;;;;;;;;;;;;;;;10290087;28;19943;-67
2021/07/29 21:52:21;;;;;;;;;;;;;;;;;;10277873;28;19929;-68
2021/07/29 21:57:18;;;;;;;;;;;;;;;;;;10279301;28;20047;-67
2021/07/29 22:02:15;;;;;;;;;;;;;;;;;;10286652;28;20039;-68
2021/07/29 22:07:12;;;;;;;;;;;;;;;;;;10280813;28;19925;-68
2021/07/29 22:12:10;;;;;;;;;;;;;;;;;;10298011;28;19925;-70
2021/07/29 22:17:07;;;;;;;;;;;;;;;;;;10251485;28;19924;-68
2021/07/29 22:22:06;;;;;;;;;;;;;;;;;;10290430;28;19917;-68
2021/07/29 22:27:03;;;;;;;;;;;;;;;;;;10281622;28;19924;-68
2021/07/29 22:32:00;;;;;;;;;;;;;;;;;;10290180;28;20253;-67
2021/07/29 22:36:58;;;;;;;;;;;;;;;;;;10286074;28;19994;-67
2021/07/29 22:41:55;;;;;;;;;;;;;;;;;;10262581;28;20390;-67
2021/07/29 22:46:52;;;;;;;;;;;;;;;;;;10281276;28;19931;-67
2021/07/29 22:51:50;;;;;;;;;;;;;;;;;;10285910;28;19940;-67
2021/07/29 22:56:47;;;;;;;;;;;;;;;;;;10284028;28;19919;-67
2021/07/29 23:01:44;;;;;;;;;;;;;;;;;;10283457;28;19939;-67
2021/07/29 23:06:41;;;;;;;;;;;;;;;;;;10279213;28;20194;-68
2021/07/29 23:11:39;;;;;;;;;;;;;;;;;;10289867;28;19928;-67
2021/07/29 23:16:36;;;;;;;;;;;;;;;;;;10277423;28;19913;-69
2021/07/29 23:21:33;;;;;;;;;;;;;;;;;;10276563;28;19913;-67
2021/07/29 23:31:48;;;;;;;;;;;;;;;;;;10290417;28;20047;-67
2021/07/29 23:36:45;;;;;;;;;;;;;;;;;;10274513;28;19937;-68
2021/07/29 23:41:42;;;;;;;;;;;;;;;;;;10278626;28;19917;-67
2021/07/29 23:46:40;;;;;;;;;;;;;;;;;;10290614;28;20004;-65
2021/07/29 23:51:37;;;;;;;;;;;;;;;;;;10264317;28;20398;-67
2021/07/29 23:56:34;;;;;;;;;;;;;;;;;;10284816;28;19949;-68
